Port Angeles, WA

8:12 PM PDT on October 20, 2014 (GMT -0700)
Fairchild International | Change Station
CLOSE
Current Station
Airport
Location: Port Angeles,
Elevation: 289 ft
Nearby Weather Stations

Elev 289 ft 48.12 °N, 123.50 °W | Updated 19 minutes ago

Overcast
Overcast
54 °F
Feels Like 54 °F
N
5
Wind Variable Wind from WSW
Gusts 12 mph

Today
High -- | Low -- °F
--% Chance of Precip.
Yesterday
High -- | Low -- °F
Precip. -- in
7:40 AM 6:15 PM
Waning Crescent, 8% visible
Pressure 29.73 in
Visibility 10.0 miles
Clouds
Dew Point 50 °F
Humidity 88%
Rainfall 0.05 in
Snow Depth Not available.
UV Not available.
Pollen .40 out of 12
PM2.5 Good
Flu Activity Sporadic
METAR KCLM 210253Z AUTO 25004KT 10SM 12/10 A2973

More Conditions Fewer Conditions

Pressure 29.73 in
Visibility 10.0 miles
Clouds
Dew Point 50 °F
Humidity 88%
Rainfall 0.05 in
Snow Depth Not available.
UV Not available.
Pollen .40 out of 12
PM2.5 Good
Flu Activity Sporadic
METAR KCLM 210253Z AUTO 25004KT 10SM 12/10 A2973

More Conditions Fewer Conditions

10-Day Weather Forecast

Almanac

Astronomy

Oct. 20, 2014 Rise Set
Actual Time 7:40 AM PDT 6:15 PM PDT
Civil Twilight 7:09 AM PDT 6:47 PM PDT
Nautical Twilight 6:33 AM PDT 7:23 PM PDT
Astronomical Twilight 5:57 AM PDT 7:59 PM PDT
Moon 4:20 AM PDT (10/20) 4:52 PM PDT (10/20)
Length of Visible Light 11h 38m
Length of Day
10h 34m
Tomorrow will be 3m 20s shorter.
Waning Crescent, 8% of the Moon is Illuminated
Today
Waning Crescent
Oct 23
New
Oct 30
First Quarter
Nov 6
Full
Nov 14
Last Quarter

Today's Extremes

State Highs State Lows

Community

WunderPhotos

Upload Photos

1,763,589 photos uploaded!

Nearby

Air Quality

  Air Quality AQ Index Pollutant
Yesterday Good
PM2.5
Current Good
PM2.5

Snow Depth

Station Depth Elevation
Dungeness 0 in 4100 ft
Alpine Meadows 0 in 3500 ft
Elbow Lake 0 in 3200 ft
Mf Nooksack 2 in 4980 ft
Skookum Creek 0 in 3920 ft

Earthquake Activity

City Distance Mag. Time & Date
No recent earthquake activity has been reported nearby.
Minimum magnitude displayed is 2.5.

Coastal Water Temperatures

Place Temperature
Port Angeles, WA 57.0 °F
Friday Harbor, WA 51.1 °F
Port Townsend, WA 52.0 °F
La Push, WA 55.0 °F

Nearby Weather Stations